Swift Current Airport

CYYN | YYN

Swift Current , Saskatchewan , Canada

Wednesday, October 23rd, 2019 | 22:56

Weather

CYYN 240400Z AUTO 31011G16KT 9SM OVC006 00/M00 A3024 RMK ICG SLP275

Charts

No Charts Available

Gates

No Gates Available

Runways

2 Available

Events

No events for this airport


New event